sensor_id;sensor_type;location;lat;lon;timestamp;P1;durP1;ratioP1;P2;durP2;ratioP2
77402;SDS011;66472;53.046;8.656;2023-06-14T00:02:54;9.65;;;8.00;;
77402;SDS011;66472;53.046;8.656;2023-06-14T00:08:04;10.03;;;9.20;;
77402;SDS011;66472;53.046;8.656;2023-06-14T00:13:02;10.80;;;9.30;;
77402;SDS011;66472;53.046;8.656;2023-06-14T00:17:59;10.30;;;9.40;;
77402;SDS011;66472;53.046;8.656;2023-06-14T00:22:57;11.33;;;10.60;;
77402;SDS011;66472;53.046;8.656;2023-06-14T00:27:53;12.07;;;11.17;;
77402;SDS011;66472;53.046;8.656;2023-06-14T00:32:48;12.13;;;11.23;;
77402;SDS011;66472;53.046;8.656;2023-06-14T00:37:44;13.33;;;10.57;;
77402;SDS011;66472;53.046;8.656;2023-06-14T00:42:40;11.65;;;10.65;;
77402;SDS011;66472;53.046;8.656;2023-06-14T00:47:35;12.83;;;11.77;;
77402;SDS011;66472;53.046;8.656;2023-06-14T00:52:32;11.53;;;10.67;;
77402;SDS011;66472;53.046;8.656;2023-06-14T00:57:27;12.67;;;11.67;;
77402;SDS011;66472;53.046;8.656;2023-06-14T01:02:24;10.93;;;10.23;;
77402;SDS011;66472;53.046;8.656;2023-06-14T01:12:25;11.83;;;10.73;;
77402;SDS011;66472;53.046;8.656;2023-06-14T01:17:24;11.23;;;10.33;;
77402;SDS011;66472;53.046;8.656;2023-06-14T01:22:22;11.03;;;9.37;;
77402;SDS011;66472;53.046;8.656;2023-06-14T01:27:17;11.63;;;10.73;;
77402;SDS011;66472;53.046;8.656;2023-06-14T01:32:14;11.90;;;11.03;;
77402;SDS011;66472;53.046;8.656;2023-06-14T01:37:10;12.13;;;11.43;;
77402;SDS011;66472;53.046;8.656;2023-06-14T01:42:05;12.93;;;11.73;;
77402;SDS011;66472;53.046;8.656;2023-06-14T01:47:01;13.07;;;11.83;;
77402;SDS011;66472;53.046;8.656;2023-06-14T01:51:56;11.83;;;10.83;;
77402;SDS011;66472;53.046;8.656;2023-06-14T01:56:52;14.80;;;11.40;;
77402;SDS011;66472;53.046;8.656;2023-06-14T02:01:47;13.30;;;11.93;;
77402;SDS011;66472;53.046;8.656;2023-06-14T02:06:42;13.87;;;12.70;;
77402;SDS011;66472;53.046;8.656;2023-06-14T02:11:38;11.45;;;10.75;;
77402;SDS011;66472;53.046;8.656;2023-06-14T02:16:33;11.52;;;10.73;;
77402;SDS011;66472;53.046;8.656;2023-06-14T02:21:31;12.73;;;11.83;;
77402;SDS011;66472;53.046;8.656;2023-06-14T02:26:26;12.90;;;12.05;;
77402;SDS011;66472;53.046;8.656;2023-06-14T02:31:24;12.57;;;10.27;;
77402;SDS011;66472;53.046;8.656;2023-06-14T02:36:19;11.80;;;10.77;;
77402;SDS011;66472;53.046;8.656;2023-06-14T02:41:15;12.83;;;11.77;;
77402;SDS011;66472;53.046;8.656;2023-06-14T02:46:10;13.88;;;12.98;;
77402;SDS011;66472;53.046;8.656;2023-06-14T02:51:06;16.70;;;15.50;;
77402;SDS011;66472;53.046;8.656;2023-06-14T02:56:03;12.30;;;11.53;;
77402;SDS011;66472;53.046;8.656;2023-06-14T03:01:01;13.93;;;12.83;;
77402;SDS011;66472;53.046;8.656;2023-06-14T03:05:59;15.30;;;14.23;;
77402;SDS011;66472;53.046;8.656;2023-06-14T03:11:01;19.30;;;17.17;;
77402;SDS011;66472;53.046;8.656;2023-06-14T03:15:58;21.07;;;19.73;;
77402;SDS011;66472;53.046;8.656;2023-06-14T03:20:54;22.50;;;20.60;;
77402;SDS011;66472;53.046;8.656;2023-06-14T03:25:52;21.87;;;20.43;;
77402;SDS011;66472;53.046;8.656;2023-06-14T03:30:49;22.73;;;21.33;;
77402;SDS011;66472;53.046;8.656;2023-06-14T03:35:45;22.57;;;20.93;;
77402;SDS011;66472;53.046;8.656;2023-06-14T03:40:40;20.97;;;19.67;;
77402;SDS011;66472;53.046;8.656;2023-06-14T03:45:36;21.70;;;20.33;;
77402;SDS011;66472;53.046;8.656;2023-06-14T03:50:32;21.97;;;20.10;;
77402;SDS011;66472;53.046;8.656;2023-06-14T03:55:27;20.43;;;18.73;;
77402;SDS011;66472;53.046;8.656;2023-06-14T04:00:26;18.57;;;17.27;;
77402;SDS011;66472;53.046;8.656;2023-06-14T04:05:22;19.97;;;18.30;;
77402;SDS011;66472;53.046;8.656;2023-06-14T04:10:22;18.47;;;17.13;;
77402;SDS011;66472;53.046;8.656;2023-06-14T04:15:17;13.83;;;12.73;;
77402;SDS011;66472;53.046;8.656;2023-06-14T04:20:13;10.90;;;9.97;;
77402;SDS011;66472;53.046;8.656;2023-06-14T04:25:10;10.00;;;9.30;;
77402;SDS011;66472;53.046;8.656;2023-06-14T04:30:08;9.80;;;8.80;;
77402;SDS011;66472;53.046;8.656;2023-06-14T04:35:07;10.53;;;9.73;;
77402;SDS011;66472;53.046;8.656;2023-06-14T04:40:05;9.67;;;8.57;;
77402;SDS011;66472;53.046;8.656;2023-06-14T04:45:03;8.00;;;7.20;;
77402;SDS011;66472;53.046;8.656;2023-06-14T04:49:59;7.17;;;6.60;;
77402;SDS011;66472;53.046;8.656;2023-06-14T04:54:57;10.80;;;8.00;;
77402;SDS011;66472;53.046;8.656;2023-06-14T04:59:53;8.40;;;7.73;;
77402;SDS011;66472;53.046;8.656;2023-06-14T05:04:51;7.47;;;6.77;;
77402;SDS011;66472;53.046;8.656;2023-06-14T05:09:46;8.53;;;7.87;;
77402;SDS011;66472;53.046;8.656;2023-06-14T05:14:43;8.80;;;8.10;;
77402;SDS011;66472;53.046;8.656;2023-06-14T05:19:39;9.37;;;8.37;;
77402;SDS011;66472;53.046;8.656;2023-06-14T05:24:36;11.53;;;6.83;;
77402;SDS011;66472;53.046;8.656;2023-06-14T05:29:31;8.77;;;7.83;;
77402;SDS011;66472;53.046;8.656;2023-06-14T05:34:26;9.10;;;8.17;;
77402;SDS011;66472;53.046;8.656;2023-06-14T05:39:22;8.63;;;7.10;;
77402;SDS011;66472;53.046;8.656;2023-06-14T05:44:17;6.50;;;5.97;;
77402;SDS011;66472;53.046;8.656;2023-06-14T05:49:12;6.77;;;6.27;;
77402;SDS011;66472;53.046;8.656;2023-06-14T05:54:07;7.90;;;7.30;;
77402;SDS011;66472;53.046;8.656;2023-06-14T05:59:03;10.23;;;7.20;;
77402;SDS011;66472;53.046;8.656;2023-06-14T06:03:58;8.43;;;7.50;;
77402;SDS011;66472;53.046;8.656;2023-06-14T06:08:53;7.90;;;6.18;;
77402;SDS011;66472;53.046;8.656;2023-06-14T06:13:49;9.53;;;7.93;;
77402;SDS011;66472;53.046;8.656;2023-06-14T06:18:44;8.67;;;7.90;;
77402;SDS011;66472;53.046;8.656;2023-06-14T06:23:39;9.47;;;8.73;;
77402;SDS011;66472;53.046;8.656;2023-06-14T06:28:34;11.47;;;8.10;;
77402;SDS011;66472;53.046;8.656;2023-06-14T06:33:30;8.97;;;8.07;;
77402;SDS011;66472;53.046;8.656;2023-06-14T06:38:25;10.13;;;8.00;;
77402;SDS011;66472;53.046;8.656;2023-06-14T06:43:21;8.17;;;7.60;;
77402;SDS011;66472;53.046;8.656;2023-06-14T06:48:18;7.80;;;7.00;;
77402;SDS011;66472;53.046;8.656;2023-06-14T06:53:14;7.67;;;5.90;;
77402;SDS011;66472;53.046;8.656;2023-06-14T06:58:09;6.80;;;6.30;;
77402;SDS011;66472;53.046;8.656;2023-06-14T07:03:05;7.73;;;6.17;;
77402;SDS011;66472;53.046;8.656;2023-06-14T07:08:00;6.37;;;5.97;;
77402;SDS011;66472;53.046;8.656;2023-06-14T07:12:56;6.07;;;5.47;;
77402;SDS011;66472;53.046;8.656;2023-06-14T07:17:52;6.50;;;5.90;;
77402;SDS011;66472;53.046;8.656;2023-06-14T07:22:48;7.03;;;5.43;;
77402;SDS011;66472;53.046;8.656;2023-06-14T07:27:44;7.13;;;6.63;;
77402;SDS011;66472;53.046;8.656;2023-06-14T07:32:40;6.50;;;5.67;;
77402;SDS011;66472;53.046;8.656;2023-06-14T07:37:36;6.93;;;5.63;;
77402;SDS011;66472;53.046;8.656;2023-06-14T07:42:35;5.57;;;5.27;;
77402;SDS011;66472;53.046;8.656;2023-06-14T07:47:31;7.67;;;5.30;;
77402;SDS011;66472;53.046;8.656;2023-06-14T07:52:27;6.82;;;6.18;;
77402;SDS011;66472;53.046;8.656;2023-06-14T07:57:23;7.68;;;6.35;;
77402;SDS011;66472;53.046;8.656;2023-06-14T08:02:18;6.80;;;6.25;;
77402;SDS011;66472;53.046;8.656;2023-06-14T08:07:14;6.20;;;5.67;;
77402;SDS011;66472;53.046;8.656;2023-06-14T08:12:09;6.55;;;6.00;;
77402;SDS011;66472;53.046;8.656;2023-06-14T08:17:05;5.47;;;5.07;;
77402;SDS011;66472;53.046;8.656;2023-06-14T08:22:00;6.10;;;5.53;;
77402;SDS011;66472;53.046;8.656;2023-06-14T08:26:56;6.30;;;5.90;;
77402;SDS011;66472;53.046;8.656;2023-06-14T08:31:52;5.80;;;5.18;;
77402;SDS011;66472;53.046;8.656;2023-06-14T08:36:51;7.18;;;5.45;;
77402;SDS011;66472;53.046;8.656;2023-06-14T08:41:46;6.10;;;5.45;;
77402;SDS011;66472;53.046;8.656;2023-06-14T08:46:42;6.20;;;5.70;;
77402;SDS011;66472;53.046;8.656;2023-06-14T08:51:37;5.65;;;5.07;;
77402;SDS011;66472;53.046;8.656;2023-06-14T08:56:33;5.25;;;4.85;;
77402;SDS011;66472;53.046;8.656;2023-06-14T09:01:30;6.30;;;5.88;;
77402;SDS011;66472;53.046;8.656;2023-06-14T09:06:26;5.75;;;5.45;;
77402;SDS011;66472;53.046;8.656;2023-06-14T09:11:23;5.35;;;4.95;;
77402;SDS011;66472;53.046;8.656;2023-06-14T09:16:18;14.68;;;7.43;;
77402;SDS011;66472;53.046;8.656;2023-06-14T09:21:14;5.82;;;5.35;;
77402;SDS011;66472;53.046;8.656;2023-06-14T09:26:11;6.32;;;5.82;;
77402;SDS011;66472;53.046;8.656;2023-06-14T09:31:06;8.00;;;6.20;;
77402;SDS011;66472;53.046;8.656;2023-06-14T09:36:04;5.70;;;5.38;;
77402;SDS011;66472;53.046;8.656;2023-06-14T09:41:00;6.28;;;5.88;;
77402;SDS011;66472;53.046;8.656;2023-06-14T09:45:58;7.30;;;6.05;;
77402;SDS011;66472;53.046;8.656;2023-06-14T09:50:53;7.53;;;6.82;;
77402;SDS011;66472;53.046;8.656;2023-06-14T09:55:50;5.85;;;5.40;;
77402;SDS011;66472;53.046;8.656;2023-06-14T10:00:47;7.30;;;5.50;;
77402;SDS011;66472;53.046;8.656;2023-06-14T10:05:46;10.68;;;5.78;;
77402;SDS011;66472;53.046;8.656;2023-06-14T10:10:43;5.70;;;5.20;;
77402;SDS011;66472;53.046;8.656;2023-06-14T10:15:54;5.85;;;5.50;;
77402;SDS011;66472;53.046;8.656;2023-06-14T10:26:06;8.73;;;5.38;;
77402;SDS011;66472;53.046;8.656;2023-06-14T10:31:06;6.63;;;6.22;;
77402;SDS011;66472;53.046;8.656;2023-06-14T10:41:04;5.93;;;5.35;;
77402;SDS011;66472;53.046;8.656;2023-06-14T10:46:16;5.50;;;5.20;;
77402;SDS011;66472;53.046;8.656;2023-06-14T10:51:21;5.95;;;5.45;;
77402;SDS011;66472;53.046;8.656;2023-06-14T10:56:25;8.15;;;7.65;;
77402;SDS011;66472;53.046;8.656;2023-06-14T11:06:50;7.13;;;6.63;;
77402;SDS011;66472;53.046;8.656;2023-06-14T11:11:47;7.72;;;7.13;;
77402;SDS011;66472;53.046;8.656;2023-06-14T11:16:47;8.35;;;7.75;;
77402;SDS011;66472;53.046;8.656;2023-06-14T11:21:42;8.93;;;7.75;;
77402;SDS011;66472;53.046;8.656;2023-06-14T11:26:38;8.88;;;7.43;;
77402;SDS011;66472;53.046;8.656;2023-06-14T11:31:33;7.47;;;7.00;;
77402;SDS011;66472;53.046;8.656;2023-06-14T11:36:29;7.35;;;6.68;;
77402;SDS011;66472;53.046;8.656;2023-06-14T11:41:32;6.70;;;6.07;;
77402;SDS011;66472;53.046;8.656;2023-06-14T11:46:27;8.75;;;5.85;;
77402;SDS011;66472;53.046;8.656;2023-06-14T11:51:22;7.28;;;6.15;;
77402;SDS011;66472;53.046;8.656;2023-06-14T11:56:18;7.60;;;6.70;;
77402;SDS011;66472;53.046;8.656;2023-06-14T12:01:16;6.75;;;6.15;;
77402;SDS011;66472;53.046;8.656;2023-06-14T12:06:11;7.90;;;7.20;;
77402;SDS011;66472;53.046;8.656;2023-06-14T12:11:10;8.50;;;7.50;;
77402;SDS011;66472;53.046;8.656;2023-06-14T12:16:09;8.60;;;7.90;;
77402;SDS011;66472;53.046;8.656;2023-06-14T12:21:05;6.50;;;6.00;;
77402;SDS011;66472;53.046;8.656;2023-06-14T12:26:01;10.60;;;9.85;;
77402;SDS011;66472;53.046;8.656;2023-06-14T12:30:57;8.57;;;6.70;;
77402;SDS011;66472;53.046;8.656;2023-06-14T12:35:54;5.72;;;5.28;;
77402;SDS011;66472;53.046;8.656;2023-06-14T12:40:50;7.93;;;7.22;;
77402;SDS011;66472;53.046;8.656;2023-06-14T12:45:46;7.22;;;6.65;;
77402;SDS011;66472;53.046;8.656;2023-06-14T12:50:41;8.82;;;7.07;;
77402;SDS011;66472;53.046;8.656;2023-06-14T12:55:37;10.35;;;9.48;;
77402;SDS011;66472;53.046;8.656;2023-06-14T13:00:32;7.25;;;6.50;;
77402;SDS011;66472;53.046;8.656;2023-06-14T13:05:28;6.70;;;6.23;;
77402;SDS011;66472;53.046;8.656;2023-06-14T13:10:23;10.75;;;6.82;;
77402;SDS011;66472;53.046;8.656;2023-06-14T13:15:18;7.50;;;6.95;;
77402;SDS011;66472;53.046;8.656;2023-06-14T13:20:14;7.80;;;7.07;;
77402;SDS011;66472;53.046;8.656;2023-06-14T13:25:10;6.65;;;6.15;;
77402;SDS011;66472;53.046;8.656;2023-06-14T13:30:05;15.32;;;5.70;;
77402;SDS011;66472;53.046;8.656;2023-06-14T13:35:01;7.40;;;6.85;;
77402;SDS011;66472;53.046;8.656;2023-06-14T13:39:56;7.13;;;6.22;;
77402;SDS011;66472;53.046;8.656;2023-06-14T13:44:52;6.63;;;6.03;;
77402;SDS011;66472;53.046;8.656;2023-06-14T13:49:47;6.78;;;5.90;;
77402;SDS011;66472;53.046;8.656;2023-06-14T13:54:50;6.88;;;6.15;;
77402;SDS011;66472;53.046;8.656;2023-06-14T13:59:46;6.70;;;6.10;;
77402;SDS011;66472;53.046;8.656;2023-06-14T14:04:42;11.55;;;6.85;;
77402;SDS011;66472;53.046;8.656;2023-06-14T14:09:37;10.32;;;9.38;;
77402;SDS011;66472;53.046;8.656;2023-06-14T14:14:34;7.68;;;7.22;;
77402;SDS011;66472;53.046;8.656;2023-06-14T14:19:32;8.48;;;7.70;;
77402;SDS011;66472;53.046;8.656;2023-06-14T14:24:28;10.23;;;9.20;;
77402;SDS011;66472;53.046;8.656;2023-06-14T14:29:23;8.30;;;6.22;;
77402;SDS011;66472;53.046;8.656;2023-06-14T14:34:18;7.25;;;6.72;;
77402;SDS011;66472;53.046;8.656;2023-06-14T14:39:14;7.07;;;6.38;;
77402;SDS011;66472;53.046;8.656;2023-06-14T14:44:09;8.32;;;7.53;;
77402;SDS011;66472;53.046;8.656;2023-06-14T14:49:05;8.02;;;7.03;;
77402;SDS011;66472;53.046;8.656;2023-06-14T14:54:03;8.10;;;7.30;;
77402;SDS011;66472;53.046;8.656;2023-06-14T14:59:04;8.35;;;7.65;;
77402;SDS011;66472;53.046;8.656;2023-06-14T15:04:00;9.13;;;7.25;;
77402;SDS011;66472;53.046;8.656;2023-06-14T15:08:56;8.35;;;7.65;;
77402;SDS011;66472;53.046;8.656;2023-06-14T15:13:52;9.80;;;8.85;;
77402;SDS011;66472;53.046;8.656;2023-06-14T15:18:47;10.15;;;6.60;;
77402;SDS011;66472;53.046;8.656;2023-06-14T15:23:48;7.78;;;6.00;;
77402;SDS011;66472;53.046;8.656;2023-06-14T15:28:45;6.70;;;6.07;;
77402;SDS011;66472;53.046;8.656;2023-06-14T15:33:45;6.97;;;6.38;;
77402;SDS011;66472;53.046;8.656;2023-06-14T15:38:41;7.57;;;6.88;;
77402;SDS011;66472;53.046;8.656;2023-06-14T15:43:39;8.80;;;8.02;;
77402;SDS011;66472;53.046;8.656;2023-06-14T15:48:34;6.65;;;6.13;;
77402;SDS011;66472;53.046;8.656;2023-06-14T15:53:30;9.18;;;6.10;;
77402;SDS011;66472;53.046;8.656;2023-06-14T15:58:26;14.65;;;7.07;;
77402;SDS011;66472;53.046;8.656;2023-06-14T16:03:21;8.40;;;7.20;;
77402;SDS011;66472;53.046;8.656;2023-06-14T16:08:18;7.50;;;6.80;;
77402;SDS011;66472;53.046;8.656;2023-06-14T16:13:13;7.78;;;7.07;;
77402;SDS011;66472;53.046;8.656;2023-06-14T16:18:09;8.07;;;7.30;;
77402;SDS011;66472;53.046;8.656;2023-06-14T16:23:05;8.38;;;7.57;;
77402;SDS011;66472;53.046;8.656;2023-06-14T16:28:00;8.13;;;7.22;;
77402;SDS011;66472;53.046;8.656;2023-06-14T16:32:56;8.95;;;7.18;;
77402;SDS011;66472;53.046;8.656;2023-06-14T16:37:52;8.57;;;7.60;;
77402;SDS011;66472;53.046;8.656;2023-06-14T16:42:51;9.80;;;7.18;;
77402;SDS011;66472;53.046;8.656;2023-06-14T16:47:46;9.40;;;8.05;;
77402;SDS011;66472;53.046;8.656;2023-06-14T16:52:42;9.70;;;7.18;;
77402;SDS011;66472;53.046;8.656;2023-06-14T16:57:37;8.05;;;7.35;;
77402;SDS011;66472;53.046;8.656;2023-06-14T17:02:34;8.00;;;7.03;;
77402;SDS011;66472;53.046;8.656;2023-06-14T17:07:29;9.07;;;8.20;;
77402;SDS011;66472;53.046;8.656;2023-06-14T17:12:25;10.45;;;9.23;;
77402;SDS011;66472;53.046;8.656;2023-06-14T17:17:30;12.35;;;8.15;;
77402;SDS011;66472;53.046;8.656;2023-06-14T17:22:28;10.10;;;8.13;;
77402;SDS011;66472;53.046;8.656;2023-06-14T17:27:24;7.07;;;6.60;;
77402;SDS011;66472;53.046;8.656;2023-06-14T17:32:20;9.20;;;8.27;;
77402;SDS011;66472;53.046;8.656;2023-06-14T17:37:22;8.00;;;7.40;;
77402;SDS011;66472;53.046;8.656;2023-06-14T17:42:17;14.82;;;7.75;;
77402;SDS011;66472;53.046;8.656;2023-06-14T17:47:13;9.45;;;8.45;;
77402;SDS011;66472;53.046;8.656;2023-06-14T17:52:08;8.23;;;7.55;;
77402;SDS011;66472;53.046;8.656;2023-06-14T17:57:10;8.73;;;8.07;;
77402;SDS011;66472;53.046;8.656;2023-06-14T18:02:06;8.98;;;8.18;;
77402;SDS011;66472;53.046;8.656;2023-06-14T18:07:02;8.88;;;8.07;;
77402;SDS011;66472;53.046;8.656;2023-06-14T18:12:07;8.05;;;7.38;;
77402;SDS011;66472;53.046;8.656;2023-06-14T18:17:06;8.32;;;7.57;;
77402;SDS011;66472;53.046;8.656;2023-06-14T18:22:04;8.48;;;7.63;;
77402;SDS011;66472;53.046;8.656;2023-06-14T18:27:00;13.43;;;8.90;;
77402;SDS011;66472;53.046;8.656;2023-06-14T18:31:56;9.63;;;8.82;;
77402;SDS011;66472;53.046;8.656;2023-06-14T18:36:52;9.80;;;7.00;;
77402;SDS011;66472;53.046;8.656;2023-06-14T18:41:48;8.40;;;7.30;;
77402;SDS011;66472;53.046;8.656;2023-06-14T18:46:44;8.20;;;7.47;;
77402;SDS011;66472;53.046;8.656;2023-06-14T18:51:39;8.40;;;6.53;;
77402;SDS011;66472;53.046;8.656;2023-06-14T18:56:37;7.40;;;6.70;;
77402;SDS011;66472;53.046;8.656;2023-06-14T19:01:33;15.70;;;9.35;;
77402;SDS011;66472;53.046;8.656;2023-06-14T19:06:31;10.60;;;9.60;;
77402;SDS011;66472;53.046;8.656;2023-06-14T19:11:26;9.27;;;5.78;;
77402;SDS011;66472;53.046;8.656;2023-06-14T19:16:21;11.07;;;6.30;;
77402;SDS011;66472;53.046;8.656;2023-06-14T19:21:17;7.95;;;7.15;;
77402;SDS011;66472;53.046;8.656;2023-06-14T19:26:13;8.38;;;7.57;;
77402;SDS011;66472;53.046;8.656;2023-06-14T19:31:08;13.65;;;9.02;;
77402;SDS011;66472;53.046;8.656;2023-06-14T19:36:06;9.27;;;8.10;;
77402;SDS011;66472;53.046;8.656;2023-06-14T19:41:01;11.63;;;7.00;;
77402;SDS011;66472;53.046;8.656;2023-06-14T19:45:56;12.70;;;6.27;;
77402;SDS011;66472;53.046;8.656;2023-06-14T19:51:00;9.17;;;5.90;;
77402;SDS011;66472;53.046;8.656;2023-06-14T19:55:55;9.10;;;6.63;;
77402;SDS011;66472;53.046;8.656;2023-06-14T20:00:53;6.53;;;5.90;;
77402;SDS011;66472;53.046;8.656;2023-06-14T20:05:52;15.07;;;6.20;;
77402;SDS011;66472;53.046;8.656;2023-06-14T20:10:49;8.37;;;6.37;;
77402;SDS011;66472;53.046;8.656;2023-06-14T20:15:44;7.13;;;6.53;;
77402;SDS011;66472;53.046;8.656;2023-06-14T20:20:40;11.83;;;7.00;;
77402;SDS011;66472;53.046;8.656;2023-06-14T20:25:39;6.50;;;5.87;;
77402;SDS011;66472;53.046;8.656;2023-06-14T20:30:34;7.93;;;6.13;;
77402;SDS011;66472;53.046;8.656;2023-06-14T20:35:30;6.30;;;5.70;;
77402;SDS011;66472;53.046;8.656;2023-06-14T20:40:25;9.00;;;5.60;;
77402;SDS011;66472;53.046;8.656;2023-06-14T20:45:21;9.47;;;5.83;;
77402;SDS011;66472;53.046;8.656;2023-06-14T20:50:16;10.87;;;5.93;;
77402;SDS011;66472;53.046;8.656;2023-06-14T20:55:11;8.07;;;5.77;;
77402;SDS011;66472;53.046;8.656;2023-06-14T21:00:07;7.70;;;5.80;;
77402;SDS011;66472;53.046;8.656;2023-06-14T21:05:06;6.43;;;5.37;;
77402;SDS011;66472;53.046;8.656;2023-06-14T21:10:03;6.93;;;5.43;;
77402;SDS011;66472;53.046;8.656;2023-06-14T21:14:59;10.73;;;5.60;;
77402;SDS011;66472;53.046;8.656;2023-06-14T21:19:54;6.50;;;5.97;;
77402;SDS011;66472;53.046;8.656;2023-06-14T21:24:50;6.60;;;6.00;;
77402;SDS011;66472;53.046;8.656;2023-06-14T21:29:45;7.60;;;6.72;;
77402;SDS011;66472;53.046;8.656;2023-06-14T21:34:40;8.23;;;6.50;;
77402;SDS011;66472;53.046;8.656;2023-06-14T21:39:38;8.50;;;7.73;;
77402;SDS011;66472;53.046;8.656;2023-06-14T21:44:40;8.97;;;7.90;;
77402;SDS011;66472;53.046;8.656;2023-06-14T21:49:43;8.03;;;7.10;;
77402;SDS011;66472;53.046;8.656;2023-06-14T21:54:41;8.63;;;7.73;;
77402;SDS011;66472;53.046;8.656;2023-06-14T21:59:36;8.93;;;7.50;;
77402;SDS011;66472;53.046;8.656;2023-06-14T22:04:32;8.37;;;7.30;;
77402;SDS011;66472;53.046;8.656;2023-06-14T22:09:27;8.67;;;8.07;;
77402;SDS011;66472;53.046;8.656;2023-06-14T22:14:24;8.20;;;6.87;;
77402;SDS011;66472;53.046;8.656;2023-06-14T22:19:19;7.73;;;7.00;;
77402;SDS011;66472;53.046;8.656;2023-06-14T22:24:15;7.80;;;7.00;;
77402;SDS011;66472;53.046;8.656;2023-06-14T22:29:10;7.70;;;6.97;;
77402;SDS011;66472;53.046;8.656;2023-06-14T22:34:05;9.37;;;7.40;;
77402;SDS011;66472;53.046;8.656;2023-06-14T22:39:02;9.93;;;8.17;;
77402;SDS011;66472;53.046;8.656;2023-06-14T22:43:57;9.00;;;7.10;;
77402;SDS011;66472;53.046;8.656;2023-06-14T22:48:53;8.00;;;7.10;;
77402;SDS011;66472;53.046;8.656;2023-06-14T22:53:51;7.53;;;6.67;;
77402;SDS011;66472;53.046;8.656;2023-06-14T22:58:47;8.57;;;6.47;;
77402;SDS011;66472;53.046;8.656;2023-06-14T23:03:46;7.53;;;6.90;;
77402;SDS011;66472;53.046;8.656;2023-06-14T23:08:42;8.43;;;7.63;;
77402;SDS011;66472;53.046;8.656;2023-06-14T23:13:39;9.93;;;6.93;;
77402;SDS011;66472;53.046;8.656;2023-06-14T23:18:35;8.23;;;7.63;;
77402;SDS011;66472;53.046;8.656;2023-06-14T23:23:31;8.13;;;7.43;;
77402;SDS011;66472;53.046;8.656;2023-06-14T23:28:30;10.97;;;7.77;;
77402;SDS011;66472;53.046;8.656;2023-06-14T23:33:28;7.47;;;6.30;;
77402;SDS011;66472;53.046;8.656;2023-06-14T23:38:24;10.63;;;7.53;;
77402;SDS011;66472;53.046;8.656;2023-06-14T23:43:19;10.45;;;6.55;;
77402;SDS011;66472;53.046;8.656;2023-06-14T23:48:16;7.60;;;6.87;;
77402;SDS011;66472;53.046;8.656;2023-06-14T23:53:11;8.57;;;7.97;;
77402;SDS011;66472;53.046;8.656;2023-06-14T23:58:07;9.43;;;8.73;;
